createdAt,value
2023-04-14T00:01:53.446Z,10.60
2023-04-14T00:04:21.022Z,10.70
2023-04-14T00:06:48.262Z,10.60
2023-04-14T00:09:15.442Z,10.60
2023-04-14T00:11:42.168Z,10.60
2023-04-14T00:14:09.161Z,10.60
2023-04-14T00:16:36.499Z,10.60
2023-04-14T00:19:04.639Z,10.60
2023-04-14T00:21:31.734Z,10.50
2023-04-14T00:23:58.782Z,10.60
2023-04-14T00:26:25.740Z,10.60
2023-04-14T00:28:52.806Z,10.60
2023-04-14T00:31:19.656Z,10.60
2023-04-14T00:33:46.430Z,10.50
2023-04-14T00:36:13.296Z,10.50
2023-04-14T00:38:41.207Z,10.50
2023-04-14T00:41:08.277Z,10.50
2023-04-14T00:43:35.091Z,10.40
2023-04-14T00:46:03.315Z,10.40
2023-04-14T00:48:30.424Z,10.40
2023-04-14T00:50:57.449Z,10.40
2023-04-14T00:53:24.283Z,10.30
2023-04-14T00:55:51.642Z,10.30
2023-04-14T00:58:25.373Z,10.20
2023-04-14T01:00:55.611Z,10.20
2023-04-14T01:03:24.672Z,10.10
2023-04-14T01:05:52.368Z,10.10
2023-04-14T01:08:20.027Z,10.00
2023-04-14T01:11:04.879Z,10.00
2023-04-14T01:13:44.968Z,10.00
2023-04-14T01:16:33.730Z,9.90
2023-04-14T01:19:25.609Z,9.90
2023-04-14T01:21:56.841Z,9.90
2023-04-14T01:24:35.895Z,9.80
2023-04-14T01:27:29.669Z,9.80
2023-04-14T01:30:24.478Z,9.80
2023-04-14T01:32:53.866Z,9.70
2023-04-14T01:35:34.791Z,9.70
2023-04-14T01:38:08.541Z,9.70
2023-04-14T01:40:38.535Z,9.70
2023-04-14T01:43:10.294Z,9.70
2023-04-14T01:45:46.972Z,9.60
2023-04-14T01:48:14.582Z,9.60
2023-04-14T01:50:42.366Z,9.60
2023-04-14T01:53:11.190Z,9.60
2023-04-14T01:55:40.741Z,9.60
2023-04-14T01:58:09.753Z,9.60
2023-04-14T02:00:40.524Z,9.50
2023-04-14T02:03:07.806Z,9.50
2023-04-14T02:05:38.180Z,9.50
2023-04-14T02:08:10.250Z,9.50
2023-04-14T02:10:39.588Z,9.50
2023-04-14T02:13:07.874Z,9.50
2023-04-14T02:15:35.477Z,9.50
2023-04-14T02:18:05.683Z,9.40
2023-04-14T02:20:33.469Z,9.40
2023-04-14T02:23:00.833Z,9.40
2023-04-14T02:25:33.720Z,9.40
2023-04-14T02:28:12.452Z,9.40
2023-04-14T02:30:41.345Z,9.30
2023-04-14T02:33:13.721Z,9.30
2023-04-14T02:36:03.402Z,9.30
2023-04-14T02:38:37.647Z,9.30
2023-04-14T02:41:12.793Z,9.30
2023-04-14T02:43:51.353Z,9.20
2023-04-14T02:46:20.242Z,9.20
2023-04-14T02:48:49.011Z,9.20
2023-04-14T02:51:17.903Z,9.20
2023-04-14T02:53:45.836Z,9.20
2023-04-14T02:56:13.147Z,9.20
2023-04-14T02:58:40.541Z,9.20
2023-04-14T03:01:07.920Z,9.20
2023-04-14T03:03:37.662Z,9.10
2023-04-14T03:06:09.425Z,9.10
2023-04-14T03:08:38.514Z,9.10
2023-04-14T03:11:06.483Z,9.10
2023-04-14T03:13:35.637Z,9.10
2023-04-14T03:16:03.710Z,9.00
2023-04-14T03:18:32.205Z,9.00
2023-04-14T03:21:01.870Z,9.00
2023-04-14T03:23:29.871Z,8.90
2023-04-14T03:25:58.154Z,9.00
2023-04-14T03:28:29.178Z,8.90
2023-04-14T03:30:57.942Z,8.90
2023-04-14T03:33:29.067Z,8.90
2023-04-14T03:35:58.843Z,8.90
2023-04-14T03:38:30.681Z,8.80
2023-04-14T03:41:01.051Z,8.80
2023-04-14T03:43:28.624Z,8.80
2023-04-14T03:45:55.568Z,8.70
2023-04-14T03:48:29.925Z,8.80
2023-04-14T03:50:59.972Z,8.70
2023-04-14T03:53:29.433Z,8.70
2023-04-14T03:55:59.885Z,8.60
2023-04-14T03:58:29.973Z,8.60
2023-04-14T04:00:57.493Z,8.60
2023-04-14T04:03:25.551Z,8.60
2023-04-14T04:05:59.036Z,8.60
2023-04-14T04:08:26.761Z,8.50
2023-04-14T04:10:55.543Z,8.60
2023-04-14T04:13:23.897Z,8.50
2023-04-14T04:15:52.062Z,8.50
2023-04-14T04:18:22.786Z,8.50
2023-04-14T04:20:50.182Z,8.50
2023-04-14T04:23:18.900Z,8.50
2023-04-14T04:25:45.987Z,8.50
2023-04-14T04:28:12.979Z,8.40
2023-04-14T04:30:43.060Z,8.40
2023-04-14T04:33:10.992Z,8.40
2023-04-14T04:35:38.896Z,8.40
2023-04-14T04:38:05.890Z,8.40
2023-04-14T04:40:38.524Z,8.40
2023-04-14T04:43:05.763Z,8.40
2023-04-14T04:46:00.110Z,8.50
2023-04-14T04:48:26.919Z,8.50
2023-04-14T04:50:53.636Z,8.50
2023-04-14T04:53:20.453Z,8.60
2023-04-14T04:55:47.171Z,8.60
2023-04-14T04:58:13.944Z,8.70
2023-04-14T05:00:40.712Z,8.70
2023-04-14T05:03:07.479Z,8.80
2023-04-14T05:05:37.449Z,8.80
2023-04-14T05:08:04.636Z,8.80
2023-04-14T05:10:33.772Z,8.90
2023-04-14T05:13:00.486Z,9.00
2023-04-14T05:15:27.238Z,9.00
2023-04-14T05:17:54.050Z,9.10
2023-04-14T05:20:21.914Z,9.10
2023-04-14T05:22:48.629Z,9.20
2023-04-14T05:25:15.545Z,9.20
2023-04-14T05:27:42.293Z,9.30
2023-04-14T05:30:09.557Z,9.30
2023-04-14T05:32:36.502Z,9.40
2023-04-14T05:35:05.352Z,9.40
2023-04-14T05:37:33.063Z,9.50
2023-04-14T05:40:00.977Z,9.50
2023-04-14T05:42:27.783Z,9.50
2023-04-14T05:44:54.541Z,9.60
2023-04-14T05:47:21.378Z,9.60
2023-04-14T05:49:48.201Z,9.70
2023-04-14T05:52:14.919Z,9.70
2023-04-14T05:54:43.205Z,9.70
2023-04-14T05:57:10.154Z,9.70
2023-04-14T05:59:36.846Z,9.80
2023-04-14T06:02:07.229Z,9.90
2023-04-14T06:04:34.413Z,10.00
2023-04-14T06:07:02.830Z,10.00
2023-04-14T06:09:29.610Z,10.10
2023-04-14T06:11:56.673Z,10.20
2023-04-14T06:14:23.739Z,10.20
2023-04-14T06:16:51.153Z,10.30
2023-04-14T06:19:18.824Z,10.40
2023-04-14T06:21:46.690Z,10.50
2023-04-14T06:24:13.448Z,10.60
2023-04-14T06:26:40.310Z,10.70
2023-04-14T06:29:07.902Z,10.70
2023-04-14T06:31:35.270Z,10.70
2023-04-14T06:34:02.073Z,10.70
2023-04-14T06:36:29.003Z,10.70
2023-04-14T06:38:57.115Z,10.70
2023-04-14T06:41:24.501Z,10.70
2023-04-14T06:43:51.216Z,10.80
2023-04-14T06:46:18.947Z,10.80
2023-04-14T06:48:45.776Z,10.80
2023-04-14T06:51:13.682Z,10.90
2023-04-14T06:53:40.750Z,10.90
2023-04-14T06:56:08.001Z,10.90
2023-04-14T06:58:34.988Z,11.00
2023-04-14T07:01:03.427Z,11.10
2023-04-14T07:03:31.246Z,11.30
2023-04-14T07:06:05.237Z,11.40
2023-04-14T07:08:33.093Z,11.40
2023-04-14T07:11:01.811Z,11.60
2023-04-14T07:13:29.048Z,11.60
2023-04-14T07:15:56.211Z,11.70
2023-04-14T07:18:23.169Z,11.80
2023-04-14T07:20:52.711Z,11.90
2023-04-14T07:23:19.748Z,12.00
2023-04-14T07:25:54.744Z,12.00
2023-04-14T07:28:24.075Z,12.10
2023-04-14T07:30:52.745Z,12.20
2023-04-14T07:33:20.294Z,12.30
2023-04-14T07:36:01.310Z,12.40
2023-04-14T07:38:30.598Z,12.50
2023-04-14T07:40:57.676Z,12.60
2023-04-14T07:43:24.727Z,12.80
2023-04-14T07:45:53.195Z,12.90
2023-04-14T07:48:21.494Z,13.00
2023-04-14T07:50:49.990Z,13.20
2023-04-14T07:53:17.116Z,13.20
2023-04-14T07:55:43.904Z,13.40
2023-04-14T07:58:15.169Z,13.50
2023-04-14T08:00:43.113Z,13.60
2023-04-14T08:03:10.357Z,13.70
2023-04-14T08:05:37.798Z,13.90
2023-04-14T08:08:05.310Z,14.00
2023-04-14T08:10:32.351Z,14.00
2023-04-14T08:13:00.195Z,14.20
2023-04-14T08:15:28.474Z,14.30
2023-04-14T08:17:55.529Z,14.40
2023-04-14T08:20:22.880Z,14.50
2023-04-14T08:22:49.845Z,14.60
2023-04-14T08:25:16.847Z,14.70
2023-04-14T08:27:44.282Z,14.80
2023-04-14T08:30:12.822Z,14.90
2023-04-14T08:32:39.609Z,15.00
2023-04-14T08:35:39.582Z,15.10
2023-04-14T08:38:01.320Z,15.20
2023-04-14T08:40:41.248Z,15.30
2023-04-14T08:43:08.375Z,15.30
2023-04-14T08:45:36.301Z,15.50
2023-04-14T08:48:04.252Z,15.50
2023-04-14T08:50:43.097Z,15.60
2023-04-14T08:53:10.670Z,15.70
2023-04-14T08:55:43.276Z,15.70
2023-04-14T08:58:11.201Z,15.80
2023-04-14T09:00:39.890Z,15.80
2023-04-14T09:03:09.165Z,15.90
2023-04-14T09:05:37.359Z,15.90
2023-04-14T09:08:07.526Z,15.90
2023-04-14T09:10:36.731Z,16.00
2023-04-14T09:13:04.807Z,16.10
2023-04-14T09:15:33.770Z,16.10
2023-04-14T09:18:02.490Z,16.20
2023-04-14T09:20:38.038Z,16.30
2023-04-14T09:23:10.421Z,16.30
2023-04-14T09:25:43.916Z,16.40
2023-04-14T09:28:16.589Z,16.40
2023-04-14T09:30:43.366Z,16.60
2023-04-14T09:35:51.958Z,16.70
2023-04-14T09:38:39.066Z,16.70
2023-04-14T09:41:07.738Z,16.80
2023-04-14T09:43:37.346Z,16.90
2023-04-14T09:46:09.482Z,17.10
2023-04-14T09:48:49.226Z,17.30
2023-04-14T09:51:17.167Z,17.40
2023-04-14T09:53:52.847Z,17.60
2023-04-14T09:56:29.948Z,17.60
2023-04-14T09:59:04.475Z,17.70
2023-04-14T10:01:34.386Z,17.60
2023-04-14T10:04:24.017Z,17.60
2023-04-14T10:06:54.792Z,17.60
2023-04-14T10:09:23.170Z,17.60
2023-04-14T10:12:13.455Z,17.60
2023-04-14T10:14:41.623Z,17.60
2023-04-14T10:17:19.819Z,17.60
2023-04-14T10:19:47.457Z,17.60
2023-04-14T10:22:22.646Z,17.70
2023-04-14T10:25:01.698Z,17.80
2023-04-14T10:27:35.338Z,18.00
2023-04-14T10:30:02.488Z,18.10
2023-04-14T10:32:34.003Z,18.20
2023-04-14T10:35:10.096Z,18.30
2023-04-14T10:37:37.199Z,18.30
2023-04-14T10:40:07.036Z,18.30
2023-04-14T10:43:12.281Z,18.40
2023-04-14T10:46:07.824Z,18.50
2023-04-14T10:48:49.436Z,18.60
2023-04-14T10:51:18.561Z,18.60
2023-04-14T10:53:55.371Z,18.60
2023-04-14T10:56:25.357Z,18.70
2023-04-14T10:58:56.576Z,18.70
2023-04-14T11:01:32.716Z,18.70
2023-04-14T11:04:20.467Z,18.80
2023-04-14T11:06:55.004Z,18.80
2023-04-14T11:09:30.156Z,18.90
2023-04-14T11:12:28.594Z,19.00
2023-04-14T11:15:02.302Z,19.00
2023-04-14T11:17:39.035Z,19.00
2023-04-14T11:20:22.488Z,18.90
2023-04-14T11:22:52.499Z,18.90
2023-04-14T11:25:25.085Z,18.90
2023-04-14T11:27:52.480Z,18.90
2023-04-14T11:30:21.565Z,19.00
2023-04-14T11:32:53.735Z,19.10
2023-04-14T11:35:30.035Z,19.30
2023-04-14T11:38:04.184Z,19.40
2023-04-14T11:40:31.177Z,19.70
2023-04-14T11:42:59.154Z,19.80
2023-04-14T11:45:31.946Z,20.10
2023-04-14T11:48:22.501Z,20.50
2023-04-14T11:51:03.888Z,21.00
2023-04-14T11:53:32.110Z,21.60
2023-04-14T11:56:02.766Z,21.80
2023-04-14T11:58:31.986Z,22.00
2023-04-14T12:00:59.813Z,22.40
2023-04-14T12:03:36.166Z,23.10
2023-04-14T12:06:09.017Z,23.70
2023-04-14T12:08:35.764Z,24.50
2023-04-14T12:11:16.480Z,25.00
2023-04-14T12:13:47.042Z,25.70
2023-04-14T12:16:15.835Z,26.10
2023-04-14T12:18:49.805Z,26.50
2023-04-14T12:21:18.681Z,26.80
2023-04-14T12:23:50.140Z,27.00
2023-04-14T12:26:17.523Z,27.00
2023-04-14T12:28:46.091Z,27.00
2023-04-14T12:31:12.971Z,27.20
2023-04-14T12:33:41.478Z,27.40
2023-04-14T12:36:12.513Z,27.80
2023-04-14T12:38:42.813Z,28.20
2023-04-14T12:41:10.926Z,28.60
2023-04-14T12:43:41.403Z,28.90
2023-04-14T12:46:09.368Z,28.70
2023-04-14T12:48:48.281Z,28.30
2023-04-14T12:51:19.588Z,27.80
2023-04-14T12:53:50.107Z,27.50
2023-04-14T12:56:19.877Z,27.50
2023-04-14T12:58:48.615Z,27.50
2023-04-14T13:01:19.115Z,27.80
2023-04-14T13:03:50.396Z,27.90
2023-04-14T13:06:23.058Z,27.80
2023-04-14T13:08:56.514Z,27.60
2023-04-14T13:11:24.997Z,27.40
2023-04-14T13:13:54.172Z,27.40
2023-04-14T13:16:22.228Z,27.50
2023-04-14T13:18:50.523Z,27.90
2023-04-14T13:21:17.524Z,28.30
2023-04-14T13:23:44.886Z,28.80
2023-04-14T13:26:12.294Z,28.60
2023-04-14T13:28:39.617Z,28.20
2023-04-14T13:31:06.854Z,27.80
2023-04-14T13:33:33.740Z,27.20
2023-04-14T13:36:04.816Z,26.50
2023-04-14T13:38:31.790Z,26.20
2023-04-14T13:40:58.579Z,25.90
2023-04-14T13:43:25.292Z,25.90
2023-04-14T13:45:52.869Z,26.10
2023-04-14T13:48:19.876Z,26.40
2023-04-14T13:50:47.467Z,26.70
2023-04-14T13:53:15.510Z,27.00
2023-04-14T13:55:42.388Z,26.90
2023-04-14T13:58:11.354Z,26.70
2023-04-14T14:00:39.070Z,26.40
2023-04-14T14:03:08.195Z,26.10
2023-04-14T14:05:36.200Z,25.90
2023-04-14T14:08:04.324Z,25.80
2023-04-14T14:10:31.171Z,25.80
2023-04-14T14:13:04.858Z,26.00
2023-04-14T14:15:35.045Z,26.20
2023-04-14T14:18:03.126Z,26.40
2023-04-14T14:20:30.379Z,26.60
2023-04-14T14:23:02.910Z,26.60
2023-04-14T14:25:29.853Z,26.40
2023-04-14T14:27:57.097Z,25.90
2023-04-14T14:30:27.265Z,25.60
2023-04-14T14:32:55.392Z,25.20
2023-04-14T14:35:22.330Z,25.00
2023-04-14T14:37:49.104Z,25.00
2023-04-14T14:40:15.989Z,24.90
2023-04-14T14:42:42.700Z,24.90
2023-04-14T14:45:10.063Z,25.00
2023-04-14T14:47:37.498Z,25.10
2023-04-14T14:50:07.663Z,25.20
2023-04-14T14:52:41.023Z,25.40
2023-04-14T14:55:09.402Z,25.50
2023-04-14T14:57:39.349Z,25.40
2023-04-14T15:00:07.840Z,25.40
2023-04-14T15:02:34.977Z,25.30
2023-04-14T15:05:09.854Z,25.20
2023-04-14T15:07:45.825Z,25.00
2023-04-14T15:10:14.789Z,24.80
2023-04-14T15:12:42.540Z,24.80
2023-04-14T15:15:09.614Z,24.80
2023-04-14T15:17:36.435Z,24.80
2023-04-14T15:20:06.298Z,24.80
2023-04-14T15:22:33.170Z,24.80
2023-04-14T15:24:59.953Z,24.70
2023-04-14T15:27:26.781Z,24.40
2023-04-14T15:29:55.003Z,23.90
2023-04-14T15:32:25.287Z,23.30
2023-04-14T15:34:56.301Z,22.70
2023-04-14T15:37:26.422Z,22.00
2023-04-14T15:39:53.374Z,21.40
2023-04-14T15:42:20.307Z,20.80
2023-04-14T15:44:49.262Z,20.40
2023-04-14T15:47:16.045Z,20.10
2023-04-14T15:49:49.886Z,19.80
2023-04-14T15:52:26.699Z,19.60
2023-04-14T15:54:59.193Z,19.40
2023-04-14T15:57:31.965Z,19.30
2023-04-14T16:00:01.415Z,19.30
2023-04-14T16:02:28.641Z,19.10
2023-04-14T16:04:55.512Z,19.00
2023-04-14T16:07:24.286Z,18.90
2023-04-14T16:09:51.007Z,18.70
2023-04-14T16:12:17.850Z,18.50
2023-04-14T16:14:44.672Z,18.40
2023-04-14T16:17:11.678Z,18.30
2023-04-14T16:19:39.377Z,18.10
2023-04-14T16:22:06.073Z,17.90
2023-04-14T16:24:34.226Z,17.80
2023-04-14T16:27:06.713Z,17.70
2023-04-14T16:29:34.549Z,17.60
2023-04-14T16:32:01.381Z,17.50
2023-04-14T16:34:30.318Z,17.40
2023-04-14T16:36:58.549Z,17.20
2023-04-14T16:39:26.332Z,17.10
2023-04-14T16:41:54.262Z,17.00
2023-04-14T16:44:21.470Z,16.80
2023-04-14T16:46:55.327Z,16.80
2023-04-14T16:49:22.129Z,16.70
2023-04-14T16:51:48.828Z,16.70
2023-04-14T16:54:15.653Z,16.50
2023-04-14T16:56:42.396Z,16.40
2023-04-14T16:59:09.982Z,16.30
2023-04-14T17:01:39.961Z,16.20
2023-04-14T17:04:09.302Z,16.10
2023-04-14T17:06:42.832Z,15.90
2023-04-14T17:09:09.660Z,15.90
2023-04-14T17:11:36.401Z,15.80
2023-04-14T17:14:03.540Z,15.70
2023-04-14T17:16:30.507Z,15.60
2023-04-14T17:18:58.312Z,15.60
2023-04-14T17:21:26.490Z,15.40
2023-04-14T17:23:54.596Z,15.40
2023-04-14T17:26:21.442Z,15.30
2023-04-14T17:28:48.146Z,15.20
2023-04-14T17:31:15.619Z,15.10
2023-04-14T17:33:44.082Z,15.00
2023-04-14T17:36:15.316Z,14.90
2023-04-14T17:38:43.182Z,14.80
2023-04-14T17:41:11.045Z,14.80
2023-04-14T17:43:41.245Z,14.70
2023-04-14T17:46:08.843Z,14.60
2023-04-14T17:48:35.792Z,14.50
2023-04-14T17:51:03.488Z,14.50
2023-04-14T17:53:31.360Z,14.40
2023-04-14T17:55:58.393Z,14.40
2023-04-14T17:58:26.600Z,14.30
2023-04-14T18:00:57.452Z,14.30
2023-04-14T18:03:24.422Z,14.30
2023-04-14T18:05:51.571Z,14.30
2023-04-14T18:08:18.303Z,14.20
2023-04-14T18:10:45.846Z,14.20
2023-04-14T18:13:12.967Z,14.20
2023-04-14T18:15:41.342Z,14.20
2023-04-14T18:18:08.908Z,14.20
2023-04-14T18:20:36.358Z,14.10
2023-04-14T18:23:03.159Z,14.10
2023-04-14T18:28:03.033Z,14.00
2023-04-14T18:30:30.370Z,13.90
2023-04-14T18:32:57.190Z,13.90
2023-04-14T18:35:25.096Z,13.80
2023-04-14T18:37:51.883Z,13.70
2023-04-14T18:40:19.727Z,13.60
2023-04-14T18:42:46.477Z,13.60
2023-04-14T18:45:13.398Z,13.50
2023-04-14T18:47:40.267Z,13.50
2023-04-14T18:50:07.543Z,13.40
2023-04-14T18:52:34.272Z,13.40
2023-04-14T18:55:01.150Z,13.30
2023-04-14T18:57:29.122Z,13.30
2023-04-14T18:59:55.969Z,13.30
2023-04-14T19:02:23.092Z,13.20
2023-04-14T19:04:50.086Z,13.20
2023-04-14T19:07:18.329Z,13.20
2023-04-14T19:09:45.107Z,13.10
2023-04-14T19:12:21.630Z,13.10
2023-04-14T19:14:54.685Z,13.10
2023-04-14T19:17:21.505Z,13.00
2023-04-14T19:19:48.327Z,13.00
2023-04-14T19:22:16.162Z,12.90
2023-04-14T19:24:44.001Z,12.90
2023-04-14T19:27:10.963Z,12.90
2023-04-14T19:29:37.919Z,12.80
2023-04-14T19:32:05.484Z,12.80
2023-04-14T19:34:32.291Z,12.70
2023-04-14T19:36:59.156Z,12.70
2023-04-14T19:39:25.948Z,12.70
2023-04-14T19:41:52.681Z,12.70
2023-04-14T19:44:19.800Z,12.60
2023-04-14T19:46:46.623Z,12.60
2023-04-14T19:49:14.321Z,12.60
2023-04-14T19:51:41.077Z,12.60
2023-04-14T19:54:07.974Z,12.60
2023-04-14T19:56:35.086Z,12.60
2023-04-14T19:59:02.554Z,12.50
2023-04-14T20:01:31.414Z,12.50
2023-04-14T20:04:08.255Z,12.50
2023-04-14T20:06:40.716Z,12.40
2023-04-14T20:09:07.802Z,12.40
2023-04-14T20:11:34.683Z,12.40
2023-04-14T20:14:01.524Z,12.40
2023-04-14T20:16:28.397Z,12.30
2023-04-14T20:18:55.714Z,12.30
2023-04-14T20:21:22.576Z,12.20
2023-04-14T20:23:49.339Z,12.20
2023-04-14T20:26:16.814Z,12.20
2023-04-14T20:28:43.766Z,12.20
2023-04-14T20:31:11.151Z,12.20
2023-04-14T20:33:37.983Z,12.20
2023-04-14T20:36:04.997Z,12.10
2023-04-14T20:38:31.794Z,12.10
2023-04-14T20:40:59.104Z,12.10
2023-04-14T20:43:33.454Z,12.00
2023-04-14T20:46:01.412Z,12.00
2023-04-14T20:48:28.673Z,12.00
2023-04-14T20:50:55.388Z,12.00
2023-04-14T20:53:26.528Z,11.90
2023-04-14T20:55:53.632Z,11.90
2023-04-14T20:58:20.575Z,11.90
2023-04-14T21:00:47.362Z,11.90
2023-04-14T21:03:14.477Z,11.80
2023-04-14T21:05:41.499Z,11.80
2023-04-14T21:08:09.668Z,11.80
2023-04-14T21:11:02.231Z,11.70
2023-04-14T21:15:28.317Z,11.70
2023-04-14T21:16:11.963Z,11.70
2023-04-14T21:18:38.944Z,11.70
2023-04-14T21:21:06.475Z,11.70
2023-04-14T21:23:35.249Z,11.70
2023-04-14T21:26:02.073Z,11.70
2023-04-14T21:28:29.152Z,11.70
2023-04-14T21:31:01.103Z,11.70
2023-04-14T21:33:31.638Z,11.70
2023-04-14T21:36:05.229Z,11.80
2023-04-14T21:38:33.664Z,11.80
2023-04-14T21:41:01.331Z,11.90
2023-04-14T21:43:28.214Z,11.80
2023-04-14T21:45:56.384Z,11.90
2023-04-14T21:48:24.053Z,11.90
2023-04-14T21:50:51.226Z,11.90
2023-04-14T21:53:18.140Z,12.00
2023-04-14T21:55:46.961Z,12.00
2023-04-14T21:58:14.939Z,12.00
2023-04-14T22:00:42.107Z,12.00
2023-04-14T22:03:09.246Z,12.00
2023-04-14T22:05:36.955Z,12.00
2023-04-14T22:08:05.150Z,12.00
2023-04-14T22:10:32.487Z,12.00
2023-04-14T22:13:00.490Z,12.00
2023-04-14T22:15:27.682Z,12.00
2023-04-14T22:17:54.668Z,12.00
2023-04-14T22:20:23.259Z,12.00
2023-04-14T22:22:50.449Z,12.00
2023-04-14T22:25:18.931Z,12.00
2023-04-14T22:27:45.796Z,12.00
2023-04-14T22:30:12.904Z,12.00
2023-04-14T22:32:39.889Z,12.00
2023-04-14T22:35:07.256Z,12.00
2023-04-14T22:37:34.537Z,12.00
2023-04-14T22:40:03.320Z,12.00
2023-04-14T22:42:30.507Z,12.00
2023-04-14T22:44:57.414Z,12.00
2023-04-14T22:47:24.397Z,12.00
2023-04-14T22:49:53.292Z,11.90
2023-04-14T22:52:20.882Z,12.00
2023-04-14T22:54:48.829Z,11.90
2023-04-14T22:57:15.798Z,12.00
2023-04-14T22:59:42.908Z,12.00
2023-04-14T23:02:09.793Z,12.00
2023-04-14T23:04:36.958Z,11.90
2023-04-14T23:07:05.418Z,11.90
2023-04-14T23:09:32.390Z,11.90
2023-04-14T23:11:59.369Z,11.90
2023-04-14T23:14:28.487Z,11.90
2023-04-14T23:17:00.016Z,11.90
2023-04-14T23:19:29.051Z,11.90
2023-04-14T23:21:55.863Z,12.00
2023-04-14T23:24:23.599Z,11.90
2023-04-14T23:26:51.239Z,11.90
2023-04-14T23:29:18.276Z,12.00
2023-04-14T23:31:46.724Z,12.00
2023-04-14T23:34:13.756Z,11.90
2023-04-14T23:36:41.671Z,12.00
2023-04-14T23:39:08.648Z,12.00
2023-04-14T23:41:35.606Z,12.00
2023-04-14T23:44:02.550Z,11.90
2023-04-14T23:46:29.897Z,11.90
2023-04-14T23:48:57.531Z,11.90
2023-04-14T23:51:27.267Z,11.90
2023-04-14T23:53:54.154Z,11.90
2023-04-14T23:56:21.434Z,11.90
2023-04-14T23:58:49.681Z,11.90
